Time;durP1;ratioP1;P1;durP2;ratioP2;P2;SDS_P1;SDS_P2;PMS_P1;PMS_P2;Temp;Humidity;BMP_temperature;BMP_pressure;BME280_temperature;BME280_humidity;BME280_pressure;Samples;Min_cycle;Max_cycle;Signal;HPM_P1;HPM_P2
2021/10/07 00:00:15;;;;;;;35.80;21.20;;;;;;;10.64;100.00;101542.63;682556;28;1113;-56
2021/10/07 00:00:37;;;;;;;34.55;21.63;;;;;;;10.63;100.00;101540.88;682147;28;1264;-55
2021/10/07 00:00:57;;;;;;;35.67;21.73;;;;;;;10.64;100.00;101540.03;681323;28;4448;-56
2021/10/07 00:01:18;;;;;;;34.60;21.33;;;;;;;10.64;100.00;101537.41;682256;28;3535;-54
2021/10/07 00:01:39;;;;;;;33.28;20.92;;;;;;;10.64;100.00;101542.63;681775;28;1088;-56
2021/10/07 00:01:59;;;;;;;27.00;19.83;;;;;;;10.64;100.00;101543.50;681587;28;1465;-54
2021/10/07 00:02:19;;;;;;;31.07;20.43;;;;;;;10.65;100.00;101542.66;682092;28;1107;-54
2021/10/07 00:02:40;;;;;;;33.20;21.10;;;;;;;10.66;100.00;101540.91;681758;28;999;-54
2021/10/07 00:03:00;;;;;;;31.55;21.38;;;;;;;10.68;100.00;101541.81;682484;28;899;-57
2021/10/07 00:03:21;;;;;;;31.80;20.80;;;;;;;10.66;100.00;101547.03;682625;28;1184;-53
2021/10/07 00:03:41;;;;;;;33.03;20.73;;;;;;;10.66;100.00;101544.41;682065;28;1357;-55
2021/10/07 00:04:02;;;;;;;30.65;20.70;;;;;;;10.66;100.00;101539.19;681112;28;4445;-57
2021/10/07 00:04:22;;;;;;;32.43;20.67;;;;;;;10.68;100.00;101547.03;682532;28;3374;-55
2021/10/07 00:04:42;;;;;;;34.13;20.83;;;;;;;10.66;100.00;101535.66;681042;28;2378;-55
2021/10/07 00:05:04;;;;;;;36.90;21.40;;;;;;;10.67;100.00;101545.28;682852;28;1405;-52
2021/10/07 00:05:25;;;;;;;34.83;21.05;;;;;;;10.63;100.00;101541.75;682153;28;1315;-56
2021/10/07 00:05:45;;;;;;;29.33;20.13;;;;;;;10.64;100.00;101540.88;682034;28;890;-55
2021/10/07 00:06:05;;;;;;;29.23;20.48;;;;;;;10.64;100.00;101537.41;681992;28;999;-55
2021/10/07 00:06:26;;;;;;;32.80;21.33;;;;;;;10.63;100.00;101540.88;681277;28;1248;-55
2021/10/07 00:06:47;;;;;;;34.03;21.58;;;;;;;10.63;100.00;101543.50;682782;28;941;-55
2021/10/07 00:07:07;;;;;;;34.77;21.87;;;;;;;10.64;100.00;101548.72;682179;28;4370;-55
2021/10/07 00:07:27;;;;;;;36.00;21.52;;;;;;;10.64;100.00;101540.88;681898;28;1058;-54
2021/10/07 00:07:48;;;;;;;34.90;21.30;;;;;;;10.62;100.00;101540.00;680556;28;3984;-54
2021/10/07 00:08:08;;;;;;;36.72;21.33;;;;;;;10.62;100.00;101544.34;681641;28;1386;-55
2021/10/07 00:08:28;;;;;;;36.47;21.90;;;;;;;10.63;100.00;101546.09;682171;28;1123;-51
2021/10/07 00:08:49;;;;;;;33.00;21.00;;;;;;;10.63;100.00;101548.72;682057;28;1210;-53
2021/10/07 00:09:09;;;;;;;31.55;20.23;;;;;;;10.63;100.00;101546.97;683053;28;1108;-53
2021/10/07 00:09:32;;;;;;;33.22;20.67;;;;;;;10.62;100.00;101549.56;682820;28;1121;-53
2021/10/07 00:09:52;;;;;;;36.95;22.13;;;;;;;10.61;100.00;101546.09;681872;28;5305;-54
2021/10/07 00:10:12;;;;;;;40.17;22.73;;;;;;;10.60;100.00;101548.69;682696;28;1295;-53
2021/10/07 00:10:33;;;;;;;37.67;22.48;;;;;;;10.61;100.00;101545.22;682371;28;1627;-53
2021/10/07 00:10:53;;;;;;;33.30;21.57;;;;;;;10.63;100.00;101540.88;681776;28;3291;-53
2021/10/07 00:11:15;;;;;;;33.75;21.30;;;;;;;10.68;100.00;101544.41;682348;28;3687;-52
2021/10/07 00:11:36;;;;;;;34.10;21.38;;;;;;;10.67;100.00;101553.13;681794;28;1200;-53
2021/10/07 00:11:56;;;;;;;28.90;20.60;;;;;;;10.67;100.00;101550.50;682079;28;1983;-54
2021/10/07 00:12:17;;;;;;;35.23;20.63;;;;;;;10.65;100.00;101547.88;681951;28;1160;-55
2021/10/07 00:12:37;;;;;;;35.80;20.93;;;;;;;10.65;100.00;101549.63;681451;28;1324;-52
2021/10/07 00:12:58;;;;;;;36.27;21.07;;;;;;;10.66;100.00;101548.75;681508;28;4656;-54
2021/10/07 00:13:18;;;;;;;30.70;20.10;;;;;;;10.65;100.00;101554.88;683071;28;1140;-52
2021/10/07 00:13:39;;;;;;;34.07;20.67;;;;;;;10.66;100.00;101551.34;681960;28;1326;-55
2021/10/07 00:14:02;;;;;;;36.65;21.40;;;;;;;10.65;100.00;101552.25;682226;28;3744;-54
2021/10/07 00:14:22;;;;;;;37.67;21.88;;;;;;;10.65;100.00;101555.72;681043;28;4448;-53
2021/10/07 00:14:43;;;;;;;36.10;21.63;;;;;;;10.64;100.00;101553.09;681737;28;1430;-51
2021/10/07 00:15:04;;;;;;;35.73;21.90;;;;;;;10.64;100.00;101555.72;682795;28;1179;-54
2021/10/07 00:15:24;;;;;;;36.13;21.80;;;;;;;10.63;100.00;101554.81;679504;28;1054;-55
2021/10/07 00:15:45;;;;;;;37.72;22.13;;;;;;;10.64;100.00;101563.56;682059;28;1032;-55
2021/10/07 00:16:06;;;;;;;36.57;21.90;;;;;;;10.64;100.00;101558.34;679893;28;4351;-52
2021/10/07 00:16:26;;;;;;;38.53;21.85;;;;;;;10.63;100.00;101556.56;680505;28;1176;-55
2021/10/07 00:16:47;;;;;;;37.60;21.30;;;;;;;10.62;100.00;101558.31;679729;28;2972;-55
2021/10/07 00:17:07;;;;;;;33.17;21.53;;;;;;;10.64;100.00;101559.19;681229;28;1133;-54
2021/10/07 00:17:28;;;;;;;35.50;21.25;;;;;;;10.62;100.00;101563.56;681318;28;3854;-50
2021/10/07 00:17:48;;;;;;;36.00;22.10;;;;;;;10.62;100.00;101557.41;680959;28;1021;-52
2021/10/07 00:18:09;;;;;;;40.87;23.13;;;;;;;10.64;100.00;101558.34;681192;28;1394;-55
2021/10/07 00:18:36;;;;;;;37.72;22.13;;;;;;;10.63;100.00;101560.03;681994;28;1333;-54
2021/10/07 00:18:57;;;;;;;36.20;22.45;;;;;;;10.63;100.00;101556.56;681182;28;4523;-57
2021/10/07 00:19:17;;;;;;;35.03;22.50;;;;;;;10.64;100.00;101553.09;682163;28;1116;-57
2021/10/07 00:19:37;;;;;;;34.45;21.45;;;;;;;10.65;100.00;101562.72;682677;28;1045;-51
2021/10/07 00:19:58;;;;;;;34.73;21.00;;;;;;;10.64;100.00;101556.59;681730;28;1001;-51
2021/10/07 00:20:18;;;;;;;35.30;21.30;;;;;;;10.69;100.00;101562.75;682569;28;1124;-54
2021/10/07 00:20:39;;;;;;;34.50;22.03;;;;;;;10.72;100.00;101560.16;681178;28;3657;-53
2021/10/07 00:20:59;;;;;;;33.05;21.88;;;;;;;10.73;100.00;101568.88;680942;28;1470;-53
2021/10/07 00:21:20;;;;;;;32.03;21.13;;;;;;;10.72;100.00;101564.50;684088;28;1234;-55
2021/10/07 00:21:42;;;;;;;28.90;20.15;;;;;;;10.71;100.00;101560.13;681329;28;1250;-53
2021/10/07 00:22:03;;;;;;;26.92;19.45;;;;;;;10.70;100.00;101569.72;681972;28;4405;-50
2021/10/07 00:22:23;;;;;;;33.33;20.73;;;;;;;10.69;100.00;101564.50;682349;28;1247;-52
2021/10/07 00:22:45;;;;;;;34.20;21.48;;;;;;;10.70;100.00;101563.59;683565;28;1171;-54
2021/10/07 00:23:06;;;;;;;36.13;21.65;;;;;;;10.70;100.00;101564.50;684343;28;1073;-54
2021/10/07 00:23:27;;;;;;;29.87;20.47;;;;;;;10.70;100.00;101561.00;684910;28;1085;-53
2021/10/07 00:24:22;;;;;;;36.20;21.35;;;;;;;10.70;100.00;101569.72;685243;28;1334;-54
2021/10/07 00:24:42;;;;;;;34.03;21.05;;;;;;;10.73;100.00;101566.28;681846;28;1300;-54
2021/10/07 00:25:03;;;;;;;37.33;22.03;;;;;;;10.71;100.00;101562.75;680507;28;4496;-52
2021/10/07 00:25:23;;;;;;;37.30;22.42;;;;;;;10.70;100.00;101567.13;681535;28;1328;-53
2021/10/07 00:25:43;;;;;;;32.47;21.70;;;;;;;10.70;100.00;101564.50;682217;28;1025;-51
2021/10/07 00:26:04;;;;;;;32.67;21.53;;;;;;;10.69;100.00;101564.50;683101;28;1057;-54
2021/10/07 00:26:24;;;;;;;31.70;20.35;;;;;;;10.69;100.00;101567.97;682206;28;1085;-52
2021/10/07 00:26:47;;;;;;;33.03;20.90;;;;;;;10.69;100.00;101561.88;681365;28;1080;-53
2021/10/07 00:27:11;;;;;;;36.03;20.95;;;;;;;10.69;100.00;101567.97;681266;28;3650;-55
2021/10/07 00:27:31;;;;;;;34.13;21.20;;;;;;;10.69;100.00;101572.34;681167;28;1253;-56
2021/10/07 00:27:57;;;;;;;36.30;21.63;;;;;;;10.69;100.00;101572.34;678588;28;4611;-53
2021/10/07 00:28:17;;;;;;;35.90;21.45;;;;;;;10.68;100.00;101567.97;679507;29;1234;-54
2021/10/07 00:28:38;;;;;;;36.92;21.75;;;;;;;10.67;100.00;101574.03;679133;28;1330;-54
2021/10/07 00:29:07;;;;;;;39.17;22.08;;;;;;;10.66;100.00;101561.81;679543;29;1157;-54
2021/10/07 00:29:39;;;;;;;37.95;21.75;;;;;;;10.65;100.00;101565.31;683862;28;1049;-53
2021/10/07 00:30:03;;;;;;;38.40;22.30;;;;;;;10.64;100.00;101569.66;681602;28;1447;-52
2021/10/07 00:30:24;;;;;;;39.25;22.50;;;;;;;10.66;100.00;101572.28;677282;28;3713;-56
2021/10/07 00:30:45;;;;;;;41.67;22.55;;;;;;;10.66;100.00;101574.91;678907;28;997;-55
2021/10/07 00:31:11;;;;;;;38.97;22.45;;;;;;;10.66;100.00;101567.94;677702;28;4391;-61
2021/10/07 00:31:35;;;;;;;35.38;21.42;;;;;;;10.67;100.00;101576.66;677810;28;1293;-52
2021/10/07 00:32:03;;;;;;;37.38;21.75;;;;;;;10.66;100.00;101573.19;678966;29;1911;-53
2021/10/07 00:32:28;;;;;;;35.28;21.83;;;;;;;10.65;100.00;101568.81;679462;28;1138;-56
2021/10/07 00:33:08;;;;;;;42.25;22.10;;;;;;;10.67;100.00;101568.81;676902;29;956;-55
2021/10/07 00:33:45;;;;;;;38.45;21.95;;;;;;;10.68;100.00;101581.03;676876;29;2347;-53
2021/10/07 00:34:17;;;;;;;40.70;22.05;;;;;;;10.67;100.00;101574.03;679151;28;4350;-55
2021/10/07 00:35:24;;;;;;;30.92;20.42;;;;;;;10.68;100.00;101581.91;682225;28;1168;-55
2021/10/07 00:37:21;;;;;;;34.35;21.20;;;;;;;10.70;100.00;101574.06;680003;28;4605;-55
2021/10/07 00:39:05;;;;;;;40.95;22.52;;;;;;;10.69;100.00;101574.94;682026;28;975;-56
2021/10/07 00:39:26;;;;;;;35.17;21.90;;;;;;;10.69;100.00;101578.44;681590;28;1277;-56
2021/10/07 00:39:47;;;;;;;35.27;21.57;;;;;;;10.68;100.00;101578.41;681284;28;1074;-56
2021/10/07 00:40:09;;;;;;;36.47;21.47;;;;;;;10.69;100.00;101582.78;681926;28;4702;-54
2021/10/07 00:40:29;;;;;;;38.95;22.00;;;;;;;10.67;100.00;101579.28;681797;28;1044;-55
2021/10/07 00:40:50;;;;;;;38.15;22.40;;;;;;;10.67;100.00;101579.28;680909;28;1552;-54
2021/10/07 00:41:10;;;;;;;41.80;22.63;;;;;;;10.68;100.00;101581.91;682050;28;985;-55
2021/10/07 00:41:38;;;;;;;37.90;21.98;;;;;;;10.69;100.00;101586.28;682041;28;1240;-55
2021/10/07 00:41:59;;;;;;;40.55;21.90;;;;;;;10.67;100.00;101585.38;682179;28;1176;-54
2021/10/07 00:42:20;;;;;;;41.40;22.58;;;;;;;10.67;100.00;101579.28;680310;29;983;-54
2021/10/07 00:42:40;;;;;;;38.97;22.60;;;;;;;10.68;100.00;101581.03;679052;28;1296;-55
2021/10/07 00:43:01;;;;;;;41.03;23.00;;;;;;;10.67;100.00;101579.28;679257;29;4346;-56
2021/10/07 00:43:21;;;;;;;41.83;22.87;;;;;;;10.67;100.00;101582.75;680317;28;3762;-56
2021/10/07 00:43:41;;;;;;;40.35;22.55;;;;;;;10.67;100.00;101584.50;681237;28;1235;-55
2021/10/07 00:44:04;;;;;;;44.53;22.87;;;;;;;10.66;100.00;101588.88;682791;28;1864;-55
2021/10/07 00:44:30;;;;;;;41.55;22.75;;;;;;;10.65;100.00;101587.09;682636;28;1002;-54
2021/10/07 00:44:50;;;;;;;40.25;21.73;;;;;;;10.65;100.00;101588.84;681969;28;1021;-56
2021/10/07 00:45:13;;;;;;;41.87;22.47;;;;;;;10.65;100.00;101592.34;682050;28;1184;-55
2021/10/07 00:45:33;;;;;;;47.63;23.10;;;;;;;10.66;100.00;101582.75;681673;28;1073;-55
2021/10/07 00:45:55;;;;;;;47.97;23.73;;;;;;;10.65;100.00;101586.25;681065;28;4465;-53
2021/10/07 00:46:16;;;;;;;43.20;23.05;;;;;;;10.65;100.00;101589.72;682029;28;1985;-56
2021/10/07 00:47:00;;;;;;;35.13;21.90;;;;;;;10.65;100.00;101587.09;680056;28;3765;-56
2021/10/07 00:47:20;;;;;;;37.03;21.27;;;;;;;10.72;100.00;101582.81;682219;28;1137;-55
2021/10/07 00:47:41;;;;;;;35.78;21.70;;;;;;;10.77;100.00;101590.69;680538;28;1012;-56
2021/10/07 00:48:01;;;;;;;36.40;21.70;;;;;;;10.76;100.00;101586.31;681676;28;1271;-54
2021/10/07 00:48:22;;;;;;;40.57;21.77;;;;;;;10.74;100.00;101586.31;682220;28;1149;-56
2021/10/07 00:48:42;;;;;;;44.47;22.65;;;;;;;10.73;100.00;101585.44;681894;28;1272;-53
2021/10/07 00:49:03;;;;;;;39.03;22.20;;;;;;;10.72;100.00;101590.66;681755;28;4353;-55
2021/10/07 00:49:24;;;;;;;40.63;22.38;;;;;;;10.72;100.00;101582.81;682440;28;1306;-56
2021/10/07 00:49:46;;;;;;;38.90;22.27;;;;;;;10.71;100.00;101586.28;681033;28;3413;-56
2021/10/07 00:50:07;;;;;;;33.72;21.20;;;;;;;10.71;100.00;101586.28;681519;28;1206;-55
2021/10/07 00:50:30;;;;;;;31.30;20.50;;;;;;;10.70;100.00;101581.91;681716;28;1267;-55
2021/10/07 00:50:51;;;;;;;32.63;21.50;;;;;;;10.70;100.00;101585.41;681268;28;1095;-55
2021/10/07 00:51:11;;;;;;;35.45;21.77;;;;;;;10.71;100.00;101591.50;681395;28;1184;-56
2021/10/07 00:51:32;;;;;;;37.87;22.00;;;;;;;10.70;100.00;101584.53;682540;28;1160;-55
2021/10/07 00:51:52;;;;;;;38.20;23.23;;;;;;;10.70;100.00;101585.41;681558;28;4533;-55
2021/10/07 00:52:15;;;;;;;38.10;22.80;;;;;;;10.71;100.00;101589.75;682490;28;1993;-55
2021/10/07 00:52:35;;;;;;;38.17;22.25;;;;;;;10.71;100.00;101589.75;681537;28;1220;-57
2021/10/07 00:52:56;;;;;;;35.33;21.35;;;;;;;10.70;100.00;101590.66;681614;28;3711;-54
2021/10/07 00:53:18;;;;;;;31.77;20.37;;;;;;;10.70;100.00;101593.25;681491;28;1056;-54
2021/10/07 00:53:39;;;;;;;36.97;21.30;;;;;;;10.70;100.00;101590.66;679711;28;1133;-57
2021/10/07 00:53:59;;;;;;;36.55;22.02;;;;;;;10.70;100.00;101593.25;681736;28;1186;-57
2021/10/07 00:54:25;;;;;;;38.80;22.30;;;;;;;10.72;100.00;101593.28;682576;28;1155;-55
2021/10/07 00:54:51;;;;;;;42.55;22.95;;;;;;;10.71;100.00;101592.38;681004;28;950;-54
2021/10/07 00:55:13;;;;;;;42.25;22.88;;;;;;;10.71;100.00;101592.38;681088;28;5058;-56
2021/10/07 00:55:35;;;;;;;45.20;23.33;;;;;;;10.71;100.00;101592.38;681085;28;1888;-56
2021/10/07 00:55:58;;;;;;;44.58;23.40;;;;;;;10.71;100.00;101601.97;681468;28;1074;-56
2021/10/07 00:56:19;;;;;;;39.17;22.40;;;;;;;10.71;100.00;101594.13;683483;28;3956;-56
2021/10/07 00:56:41;;;;;;;34.53;22.02;;;;;;;10.70;100.00;101601.13;684120;28;1558;-57
2021/10/07 00:57:04;;;;;;;36.47;21.60;;;;;;;10.71;100.00;101594.13;682608;28;1259;-57
2021/10/07 00:57:25;;;;;;;37.30;21.42;;;;;;;10.70;100.00;101595.88;685324;28;2052;-53
2021/10/07 00:57:46;;;;;;;40.78;22.85;;;;;;;10.70;100.00;101601.13;686215;28;967;-57
2021/10/07 00:58:07;;;;;;;41.65;22.80;;;;;;;10.70;100.00;101594.97;684757;28;4421;-53
2021/10/07 00:58:28;;;;;;;38.65;22.58;;;;;;;10.72;100.00;101595.88;684457;28;1252;-56
2021/10/07 00:58:48;;;;;;;39.30;23.00;;;;;;;10.72;100.00;101601.13;683949;28;1088;-56
2021/10/07 00:59:09;;;;;;;37.57;23.50;;;;;;;10.72;100.00;101598.50;683710;28;1105;-57
2021/10/07 00:59:30;;;;;;;42.38;23.15;;;;;;;10.72;100.00;101598.50;681473;28;3370;-57
2021/10/07 00:59:52;;;;;;;41.77;22.43;;;;;;;10.72;100.00;101598.50;682139;28;996;-56
2021/10/07 01:00:12;;;;;;;36.75;22.08;;;;;;;10.72;100.00;101595.88;682099;28;1108;-56
2021/10/07 01:00:33;;;;;;;36.15;21.88;;;;;;;10.72;100.00;101593.28;681963;28;1077;-57
2021/10/07 01:00:53;;;;;;;34.53;21.50;;;;;;;10.73;100.00;101600.28;681353;28;4355;-57
2021/10/07 01:01:13;;;;;;;36.95;21.77;;;;;;;10.73;100.00;101600.28;682028;28;1192;-55
2021/10/07 01:01:34;;;;;;;37.17;21.80;;;;;;;10.73;100.00;101595.03;682095;28;1319;-57
2021/10/07 01:01:54;;;;;;;37.50;21.70;;;;;;;10.75;100.00;101600.28;682353;28;1194;-57
2021/10/07 01:02:15;;;;;;;37.63;22.23;;;;;;;10.71;100.00;101597.59;682084;28;1192;-55
2021/10/07 01:02:36;;;;;;;34.27;21.07;;;;;;;10.72;100.00;101601.13;681610;28;2273;-57
2021/10/07 01:02:56;;;;;;;30.02;20.55;;;;;;;10.72;100.00;101598.50;682752;28;1184;-57
2021/10/07 01:03:17;;;;;;;37.90;22.33;;;;;;;10.70;100.00;101601.13;682420;28;1326;-56
2021/10/07 01:03:37;;;;;;;38.00;22.10;;;;;;;10.72;100.00;101598.50;681215;28;1148;-56
2021/10/07 01:03:57;;;;;;;36.33;22.07;;;;;;;10.71;100.00;101588.91;681937;28;4514;-55
2021/10/07 01:04:18;;;;;;;33.75;21.60;;;;;;;10.72;100.00;101599.38;681990;28;1041;-57
2021/10/07 01:04:41;;;;;;;33.83;21.73;;;;;;;10.73;100.00;101606.38;682171;28;972;-55
2021/10/07 01:05:02;;;;;;;31.05;20.48;;;;;;;10.73;100.00;101600.28;681960;28;927;-55
2021/10/07 01:05:23;;;;;;;35.17;20.83;;;;;;;10.74;100.00;101599.38;681774;28;1029;-54
2021/10/07 01:05:44;;;;;;;37.50;21.63;;;;;;;10.76;100.00;101597.66;681972;28;3552;-57
2021/10/07 01:06:04;;;;;;;38.03;21.98;;;;;;;10.76;100.00;101600.28;681209;28;3616;-56
2021/10/07 01:06:25;;;;;;;40.70;22.70;;;;;;;10.76;100.00;101602.00;681722;28;1445;-55
2021/10/07 01:06:45;;;;;;;40.90;22.83;;;;;;;10.75;100.00;101598.53;680691;28;1055;-52
2021/10/07 01:07:07;;;;;;;38.83;22.27;;;;;;;10.75;100.00;101598.53;681397;28;4877;-55
2021/10/07 01:07:27;;;;;;;34.15;21.55;;;;;;;10.74;100.00;101602.00;682027;28;1295;-56
2021/10/07 01:07:50;;;;;;;37.43;22.17;;;;;;;10.73;100.00;101603.75;681800;28;1006;-56
2021/10/07 01:08:11;;;;;;;39.08;22.13;;;;;;;10.73;100.00;101601.13;681382;28;1101;-56
2021/10/07 01:08:31;;;;;;;36.70;21.95;;;;;;;10.73;100.00;101601.13;681992;28;1062;-56
2021/10/07 01:08:52;;;;;;;37.07;22.07;;;;;;;10.72;100.00;101602.00;681454;28;1000;-56
2021/10/07 01:09:16;;;;;;;38.60;22.52;;;;;;;10.71;100.00;101604.59;681146;28;3722;-56
2021/10/07 01:09:38;;;;;;;42.35;23.00;;;;;;;10.69;100.00;101601.09;681595;28;1267;-56
2021/10/07 01:09:58;;;;;;;40.63;23.00;;;;;;;10.70;100.00;101600.22;681513;28;4749;-54
2021/10/07 01:10:19;;;;;;;34.33;21.70;;;;;;;10.70;100.00;101603.72;682521;28;1213;-53
2021/10/07 01:10:39;;;;;;;38.70;21.80;;;;;;;10.71;100.00;101601.97;681254;28;1085;-57
2021/10/07 01:11:00;;;;;;;36.27;22.03;;;;;;;10.75;100.00;101603.75;682582;28;1105;-57
2021/10/07 01:11:20;;;;;;;36.22;21.30;;;;;;;10.75;100.00;101603.75;681950;28;983;-54
2021/10/07 01:11:41;;;;;;;30.92;19.67;;;;;;;10.76;100.00;101607.25;682355;28;962;-56
2021/10/07 01:12:03;;;;;;;29.43;20.17;;;;;;;10.75;100.00;101608.13;681901;28;2548;-56
2021/10/07 01:12:24;;;;;;;37.55;21.98;;;;;;;10.75;100.00;101603.75;681755;28;3354;-57
2021/10/07 01:12:44;;;;;;;37.70;22.27;;;;;;;10.75;100.00;101603.75;682569;28;1303;-55
2021/10/07 01:13:06;;;;;;;36.67;22.45;;;;;;;10.73;100.00;101600.28;681072;28;4824;-55
2021/10/07 01:13:26;;;;;;;38.08;22.80;;;;;;;10.75;100.00;101613.34;684024;28;1391;-56
2021/10/07 01:13:46;;;;;;;40.63;22.65;;;;;;;10.74;100.00;101607.22;684590;28;1148;-56
2021/10/07 01:14:07;;;;;;;37.93;22.40;;;;;;;10.75;100.00;101608.13;685038;28;1206;-56
2021/10/07 01:14:52;;;;;;;37.92;22.55;;;;;;;10.74;100.00;101607.22;684977;28;1097;-56
2021/10/07 01:15:12;;;;;;;42.85;23.00;;;;;;;10.73;100.00;101608.97;683343;28;1016;-56
2021/10/07 01:15:32;;;;;;;37.33;22.07;;;;;;;10.73;100.00;101610.72;684076;28;3212;-56
2021/10/07 01:16:02;;;;;;;33.13;21.60;;;;;;;10.73;100.00;101613.34;683779;28;4488;-57
2021/10/07 01:16:22;;;;;;;42.08;22.85;;;;;;;10.75;100.00;101616.84;684849;28;1132;-57
2021/10/07 01:16:43;;;;;;;42.40;22.60;;;;;;;10.73;100.00;101610.72;683487;28;1151;-56
2021/10/07 01:17:03;;;;;;;41.13;22.40;;;;;;;10.73;100.00;101610.72;683535;28;1029;-57
2021/10/07 01:17:27;;;;;;;41.33;23.27;;;;;;;10.73;100.00;101615.97;682636;28;1065;-55
2021/10/07 01:17:47;;;;;;;41.20;23.10;;;;;;;10.73;100.00;101606.38;681019;28;1123;-55
2021/10/07 01:18:08;;;;;;;38.70;22.83;;;;;;;10.73;100.00;101605.50;681311;28;1033;-57
2021/10/07 01:18:28;;;;;;;36.67;22.10;;;;;;;10.74;100.00;101609.84;682108;28;1371;-57
2021/10/07 01:18:49;;;;;;;34.30;21.90;;;;;;;10.73;100.00;101613.34;681304;28;3491;-56
2021/10/07 01:19:09;;;;;;;36.10;21.90;;;;;;;10.72;100.00;101608.97;681545;28;4948;-56
2021/10/07 01:19:29;;;;;;;38.20;22.17;;;;;;;10.72;100.00;101604.59;682165;28;1698;-57
2021/10/07 01:19:52;;;;;;;37.43;21.97;;;;;;;10.72;100.00;101608.97;681655;28;1390;-56
2021/10/07 01:20:13;;;;;;;38.53;22.52;;;;;;;10.73;100.00;101602.88;682296;28;1485;-56
2021/10/07 01:20:34;;;;;;;41.92;23.30;;;;;;;10.74;100.00;101609.84;681735;28;979;-55
2021/10/07 01:20:54;;;;;;;41.42;23.40;;;;;;;10.72;100.00;101609.84;681945;28;1256;-55
2021/10/07 01:21:17;;;;;;;42.97;22.83;;;;;;;10.81;100.00;101606.41;682258;28;1248;-55
2021/10/07 01:21:37;;;;;;;38.85;22.25;;;;;;;10.80;100.00;101607.31;681615;28;1302;-56
2021/10/07 01:21:57;;;;;;;37.00;22.67;;;;;;;10.78;100.00;101606.41;681273;28;4566;-53
2021/10/07 01:22:19;;;;;;;39.67;23.43;;;;;;;10.79;100.00;101607.28;682158;28;3909;-57
2021/10/07 01:22:40;;;;;;;38.67;22.75;;;;;;;10.79;100.00;101604.69;681735;28;1357;-56
2021/10/07 01:23:00;;;;;;;33.17;21.30;;;;;;;10.78;100.00;101614.25;682257;28;1097;-56
2021/10/07 01:23:21;;;;;;;30.13;20.83;;;;;;;10.76;100.00;101604.63;682373;28;1175;-55
2021/10/07 01:23:43;;;;;;;38.60;22.17;;;;;;;10.76;100.00;101605.53;681862;28;1042;-55
2021/10/07 01:24:04;;;;;;;41.20;22.77;;;;;;;10.76;100.00;101608.13;681579;28;1216;-55
2021/10/07 01:24:24;;;;;;;39.88;22.55;;;;;;;10.78;100.00;101613.38;682120;28;1276;-56
2021/10/07 01:24:46;;;;;;;36.33;21.95;;;;;;;10.77;100.00;101609.88;681543;28;1052;-53
2021/10/07 01:25:06;;;;;;;38.30;22.05;;;;;;;10.77;100.00;101614.22;680513;28;4293;-55
2021/10/07 01:25:32;;;;;;;46.13;22.80;;;;;;;10.75;100.00;101613.34;681732;28;3640;-52
2021/10/07 01:25:52;;;;;;;42.78;22.70;;;;;;;10.75;100.00;101613.34;681819;28;959;-55
2021/10/07 01:26:15;;;;;;;42.00;23.65;;;;;;;10.75;100.00;101611.59;682527;28;1460;-56
2021/10/07 01:26:35;;;;;;;39.92;23.40;;;;;;;10.75;100.00;101608.13;681644;28;1045;-55
2021/10/07 01:26:56;;;;;;;42.55;23.98;;;;;;;10.74;100.00;101615.06;682521;28;1294;-55
2021/10/07 01:27:18;;;;;;;41.27;23.80;;;;;;;10.75;100.00;101615.97;681893;28;973;-57
2021/10/07 01:27:38;;;;;;;38.33;23.83;;;;;;;10.73;100.00;101608.97;681861;28;1058;-55
2021/10/07 01:27:59;;;;;;;37.53;22.90;;;;;;;10.73;100.00;101613.34;680744;28;4757;-54
2021/10/07 01:28:19;;;;;;;45.30;23.80;;;;;;;10.74;100.00;101617.69;682129;28;3204;-55
2021/10/07 01:28:42;;;;;;;41.88;24.48;;;;;;;10.74;100.00;101609.84;681186;28;2089;-54
2021/10/07 01:29:02;;;;;;;34.75;21.95;;;;;;;10.76;100.00;101610.75;682519;28;1520;-55
2021/10/07 01:29:23;;;;;;;38.90;22.93;;;;;;;10.87;100.00;101611.72;681648;28;1268;-56
2021/10/07 01:29:44;;;;;;;39.87;23.03;;;;;;;10.86;100.00;101615.19;682131;28;1310;-54
2021/10/07 01:30:08;;;;;;;42.63;23.85;;;;;;;10.85;100.00;101616.03;679880;29;1391;-56
2021/10/07 01:30:29;;;;;;;38.53;23.27;;;;;;;10.84;100.00;101614.31;678428;29;1266;-54
2021/10/07 01:30:49;;;;;;;36.23;22.33;;;;;;;10.82;100.00;101610.78;680477;28;1156;-57
2021/10/07 01:31:10;;;;;;;35.67;22.20;;;;;;;10.81;100.00;101609.03;680796;28;4521;-56
2021/10/07 01:31:30;;;;;;;39.92;22.75;;;;;;;10.83;100.00;101614.31;681053;28;1137;-56
2021/10/07 01:31:51;;;;;;;41.88;23.70;;;;;;;10.81;100.00;101614.25;680573;28;3749;-55
2021/10/07 01:32:11;;;;;;;41.00;23.17;;;;;;;10.81;100.00;101619.50;682619;28;1981;-56
2021/10/07 01:32:37;;;;;;;45.30;23.52;;;;;;;10.80;100.00;101609.03;684932;28;1419;-56
2021/10/07 01:32:58;;;;;;;46.60;22.98;;;;;;;10.80;100.00;101612.53;682239;28;1297;-55
2021/10/07 01:33:18;;;;;;;43.72;23.38;;;;;;;10.78;100.00;101611.63;681524;28;1125;-57
2021/10/07 01:33:39;;;;;;;38.17;22.43;;;;;;;10.78;100.00;101611.63;681856;28;1303;-55
2021/10/07 01:33:59;;;;;;;31.33;21.20;;;;;;;10.78;100.00;101613.38;681652;28;4548;-55
2021/10/07 01:34:22;;;;;;;35.17;22.47;;;;;;;10.76;100.00;101613.38;682621;28;1137;-55
2021/10/07 01:34:42;;;;;;;41.55;23.65;;;;;;;10.76;100.00;101612.47;681463;28;1350;-56
2021/10/07 01:35:05;;;;;;;43.00;23.67;;;;;;;10.76;100.00;101615.97;681982;28;3852;-54
2021/10/07 01:35:26;;;;;;;40.75;23.52;;;;;;;10.76;100.00;101612.47;682382;28;1482;-53
2021/10/07 01:35:46;;;;;;;42.20;24.27;;;;;;;10.75;100.00;101619.44;683791;28;1528;-53
2021/10/07 01:36:07;;;;;;;39.93;23.37;;;;;;;10.76;100.00;101615.09;681674;28;1328;-55
2021/10/07 01:36:28;;;;;;;38.67;22.92;;;;;;;10.76;100.00;101615.09;682049;28;1199;-56
2021/10/07 01:36:48;;;;;;;33.27;21.40;;;;;;;10.76;100.00;101615.97;681793;28;1245;-54
2021/10/07 01:37:09;;;;;;;32.55;21.15;;;;;;;10.76;100.00;101615.09;682129;28;5517;-56
2021/10/07 01:37:29;;;;;;;40.67;22.17;;;;;;;10.76;100.00;101612.47;682493;28;1070;-55
2021/10/07 01:37:50;;;;;;;37.60;22.33;;;;;;;10.75;100.00;101615.97;681520;28;897;-56
2021/10/07 01:38:11;;;;;;;36.65;22.30;;;;;;;10.75;100.00;101616.84;682245;28;3488;-56
2021/10/07 01:38:32;;;;;;;33.13;21.63;;;;;;;10.76;100.00;101615.09;681870;28;2446;-56
2021/10/07 01:38:52;;;;;;;35.20;22.27;;;;;;;10.75;100.00;101613.34;681543;28;1223;-56
2021/10/07 01:39:12;;;;;;;39.25;22.95;;;;;;;10.75;100.00;101614.22;682518;28;3731;-56
2021/10/07 01:39:33;;;;;;;37.57;23.00;;;;;;;10.75;100.00;101606.38;682129;28;1022;-57
2021/10/07 01:39:53;;;;;;;35.87;22.57;;;;;;;10.75;100.00;101609.00;681157;28;4453;-57
2021/10/07 01:40:13;;;;;;;35.15;22.52;;;;;;;10.75;100.00;101614.22;682494;28;1022;-57
2021/10/07 01:40:36;;;;;;;32.60;21.80;;;;;;;10.76;100.00;101612.47;685554;28;1038;-55
2021/10/07 01:40:56;;;;;;;30.63;20.63;;;;;;;10.76;100.00;101610.75;684468;28;1207;-55
2021/10/07 01:41:17;;;;;;;37.83;22.53;;;;;;;10.76;100.00;101610.75;682370;28;3612;-56
2021/10/07 01:41:37;;;;;;;34.97;21.80;;;;;;;10.76;100.00;101607.25;680675;28;3415;-57
2021/10/07 01:41:57;;;;;;;28.97;20.47;;;;;;;10.76;100.00;101609.84;682467;28;1279;-53
2021/10/07 01:42:18;;;;;;;34.47;21.90;;;;;;;10.77;100.00;101609.88;680837;28;1101;-57
2021/10/07 01:42:41;;;;;;;37.88;22.95;;;;;;;10.77;100.00;101604.63;681928;28;1334;-55
2021/10/07 01:43:02;;;;;;;39.53;23.70;;;;;;;10.78;100.00;101610.75;681369;28;5266;-55
2021/10/07 01:43:23;;;;;;;42.33;24.10;;;;;;;10.76;100.00;101615.97;681786;28;1460;-56